createdAt,value
2023-05-09T00:08:29.970Z,15.74
2023-05-09T00:18:33.998Z,15.74
2023-05-09T00:28:37.861Z,15.72
2023-05-09T00:38:40.234Z,15.66
2023-05-09T00:48:44.120Z,15.64
2023-05-09T00:58:46.650Z,15.59
2023-05-09T01:08:54.762Z,15.61
2023-05-09T01:19:01.965Z,15.66
2023-05-09T01:29:18.867Z,15.70
2023-05-09T01:39:22.774Z,15.66
2023-05-09T01:49:27.168Z,15.59
2023-05-09T01:59:30.570Z,15.54
2023-05-09T02:09:34.345Z,15.51
2023-05-09T02:19:36.849Z,15.45
2023-05-09T02:29:44.332Z,15.45
2023-05-09T02:39:46.877Z,15.35
2023-05-09T02:49:50.841Z,15.34
2023-05-09T02:59:53.302Z,15.33
2023-05-09T03:09:57.037Z,15.26
2023-05-09T03:20:01.034Z,15.17
2023-05-09T03:30:08.201Z,15.18
2023-05-09T03:40:10.993Z,15.14
2023-05-09T03:50:14.724Z,15.23
2023-05-09T04:00:17.418Z,15.25
2023-05-09T04:10:21.254Z,15.09
2023-05-09T04:20:23.795Z,14.94
2023-05-09T04:30:27.934Z,15.11
2023-05-09T04:40:30.744Z,15.05
2023-05-09T04:50:34.510Z,15.15
2023-05-09T05:00:36.932Z,15.09
2023-05-09T05:10:40.683Z,15.17
2023-05-09T05:20:43.552Z,15.27
2023-05-09T05:30:47.431Z,15.33
2023-05-09T05:40:49.819Z,15.54
2023-05-09T05:50:53.577Z,15.60
2023-05-09T06:00:56.054Z,15.65
2023-05-09T06:11:01.430Z,15.75
2023-05-09T06:21:04.261Z,15.80
2023-05-09T06:31:08.186Z,15.87
2023-05-09T06:41:10.738Z,16.07
2023-05-09T06:51:14.497Z,16.02
2023-05-09T07:01:16.893Z,16.34
2023-05-09T07:11:21.094Z,16.41
2023-05-09T07:21:23.700Z,16.62
2023-05-09T07:31:27.852Z,16.67
2023-05-09T07:41:30.336Z,16.82
2023-05-09T07:51:34.265Z,17.03
2023-05-09T08:01:36.641Z,17.00
2023-05-09T08:11:40.807Z,17.26
2023-05-09T08:21:44.354Z,17.33
2023-05-09T08:31:48.179Z,17.60
2023-05-09T08:41:50.807Z,17.64
2023-05-09T08:51:54.687Z,17.66
2023-05-09T09:01:57.561Z,17.82
2023-05-09T09:12:01.999Z,17.92
2023-05-09T09:22:05.644Z,18.16
2023-05-09T09:32:09.501Z,18.30
2023-05-09T09:42:12.402Z,18.54
2023-05-09T09:52:23.446Z,18.51
2023-05-09T10:02:25.873Z,18.90
2023-05-09T10:12:31.280Z,18.91
2023-05-09T10:22:34.131Z,19.38
2023-05-09T10:32:44.593Z,19.40
2023-05-09T10:42:47.039Z,19.56
2023-05-09T10:53:14.212Z,19.64
2023-05-09T11:03:17.062Z,19.69
2023-05-09T11:13:23.516Z,19.85
2023-05-09T11:23:27.436Z,19.79
2023-05-09T11:33:31.943Z,19.73
2023-05-09T11:43:34.492Z,19.41
2023-05-09T11:53:44.935Z,19.35
2023-05-09T12:03:47.499Z,19.38
2023-05-09T12:13:53.486Z,19.43
2023-05-09T12:23:56.621Z,19.73
2023-05-09T12:34:00.614Z,20.03
2023-05-09T12:44:04.163Z,20.10
2023-05-09T12:54:10.896Z,20.00
2023-05-09T13:04:13.304Z,19.80
2023-05-09T13:14:17.144Z,19.55
2023-05-09T13:24:19.601Z,19.42
2023-05-09T13:34:23.377Z,20.02
2023-05-09T13:44:25.778Z,20.21
2023-05-09T13:54:30.137Z,20.54
2023-05-09T14:04:32.864Z,21.15
2023-05-09T14:14:36.713Z,21.26
2023-05-09T14:24:39.252Z,21.47
2023-05-09T14:34:43.227Z,21.22
2023-05-09T14:44:47.274Z,21.14
2023-05-09T14:54:51.039Z,21.09
2023-05-09T15:04:55.831Z,20.97
2023-05-09T15:15:12.493Z,20.78
2023-05-09T15:25:15.008Z,20.73
2023-05-09T15:35:19.117Z,20.57
2023-05-09T15:45:21.523Z,20.47
2023-05-09T15:55:27.946Z,20.43
2023-05-09T16:05:31.162Z,20.42
2023-05-09T16:15:35.085Z,20.35
2023-05-09T16:25:37.564Z,20.37
2023-05-09T16:35:41.334Z,20.03
2023-05-09T16:45:44.109Z,19.96
2023-05-09T16:55:47.904Z,19.78
2023-05-09T17:05:51.260Z,19.19
2023-05-09T17:15:55.018Z,18.92
2023-05-09T17:25:57.534Z,18.30
2023-05-09T17:36:01.538Z,18.13
2023-05-09T17:46:04.772Z,18.24
2023-05-09T17:56:08.670Z,17.93
2023-05-09T18:06:11.084Z,17.99
2023-05-09T18:16:14.887Z,17.74
2023-05-09T18:26:17.355Z,17.57
2023-05-09T18:36:21.148Z,17.46
2023-05-09T18:46:23.950Z,17.00
2023-05-09T18:56:27.760Z,17.06
2023-05-09T19:06:30.206Z,16.85
2023-05-09T19:16:34.068Z,16.83
2023-05-09T19:26:36.558Z,17.13
2023-05-09T19:36:40.297Z,16.87
2023-05-09T19:46:43.803Z,16.91
2023-05-09T19:56:47.658Z,16.78
2023-05-09T20:06:50.027Z,16.64
2023-05-09T20:16:53.786Z,16.52
2023-05-09T20:26:56.168Z,16.49
2023-05-09T20:37:00.016Z,16.56
2023-05-09T20:47:02.657Z,16.52
2023-05-09T20:57:06.580Z,16.47
2023-05-09T21:07:09.889Z,16.35
2023-05-09T21:17:13.862Z,16.26
2023-05-09T21:27:16.373Z,16.19
2023-05-09T21:37:20.094Z,16.16
2023-05-09T21:47:22.704Z,15.95
2023-05-09T21:57:26.633Z,16.03
2023-05-09T22:07:29.547Z,15.95
2023-05-09T22:17:33.346Z,15.80
2023-05-09T22:27:35.932Z,16.04
2023-05-09T22:37:39.922Z,15.93
2023-05-09T22:47:42.381Z,15.93
2023-05-09T22:57:46.166Z,15.96
2023-05-09T23:07:48.594Z,15.90
2023-05-09T23:17:52.365Z,15.93
2023-05-09T23:27:54.830Z,15.68
2023-05-09T23:37:58.576Z,15.73
2023-05-09T23:48:01.067Z,15.69
2023-05-09T23:58:04.849Z,15.48
